Saint Lawrence, South Dakota
Current Conditions -  °F | °C
As of 8:55 AM on Sunday 23 Nov 2014 (Local Time) from KHON Reporting Station
Overcast Overcast  
Wind Chill: 28°   Ceiling: 9500
Heat Index: 37°   Visibility: 10mi
Dew Point: 33°   Wind: 15mph
Humidity: 86%   Direction: 290°WNW
Pressure: 29.55"   Gusts: NA
Location:  44.52°N, 98.94°W
Report Text: KHON 231455Z AUTO 29013KT 10SM OVC095 03/01 A2955 RMK AO2 SLP015 T00280006 53020
Loading
Personal Weather Stations






























Interactive Weather Map New forecast layout! Learn more

10-Day Weather Forecast

Advertisements
Track Severe Weather on mobile